Camaqua, Brazil
Current Conditions -  °F | °C
As of 5:00 PM on Tuesday 21 Oct 2014 (Local Time) from SBPK Reporting Station
Clear Clear  
Wind Chill: 72°   Ceiling: Unl
Heat Index: 72°   Visibility: 6mi
Dew Point: 54°   Wind: 12mph
Humidity: 53%   Direction: 90°E
Pressure: 30.15"   Gusts: NA
Location:  30.85°S, 51.81°W
Report Text: SBPK 211900Z 09010KT CAVOK 22/12 Q1021
Loading
Personal Weather Stations






























Interactive Weather Map New forecast layout! Learn more

10-Day Weather Forecast

Advertisements
Track Severe Weather on mobile